Time;durP1;ratioP1;P1;durP2;ratioP2;P2;SDS_P1;SDS_P2;PMS_P1;PMS_P2;Temp;Humidity;BMP_temperature;BMP_pressure;BME280_temperature;BME280_humidity;BME280_pressure;Samples;Min_cycle;Max_cycle;Signal;HPM_P1;HPM_P2
2024/02/28 00:00:45;;;;;;;45.65;17.05;;;2.70;99.90;;;;;;4941293;29;20126;-87
2024/02/28 00:03:11;;;;;;;42.92;17.10;;;2.90;99.90;;;;;;4925047;29;20123;-87
2024/02/28 00:05:38;;;;;;;39.08;16.60;;;2.20;99.90;;;;;;4955104;29;20441;-87
2024/02/28 00:08:05;;;;;;;45.03;16.67;;;1.90;99.90;;;;;;4944840;29;20039;-87
2024/02/28 00:10:32;;;;;;;40.05;16.17;;;1.90;99.90;;;;;;4940787;29;20118;-87
2024/02/28 00:12:59;;;;;;;46.47;17.70;;;2.00;99.90;;;;;;4929140;29;20055;-87
2024/02/28 00:15:26;;;;;;;45.05;17.38;;;2.00;99.90;;;;;;4940485;29;20043;-87
2024/02/28 00:17:54;;;;;;;45.08;18.15;;;2.50;99.90;;;;;;4940657;29;20039;-87
2024/02/28 00:20:20;;;;;;;45.72;17.73;;;2.00;99.90;;;;;;4957098;29;20048;-87
2024/02/28 00:22:47;;;;;;;45.75;17.52;;;2.00;99.90;;;;;;4940997;29;20051;-87
2024/02/28 00:25:15;;;;;;;48.25;17.75;;;2.00;99.90;;;;;;4941009;29;20398;-87
2024/02/28 00:27:42;;;;;;;45.00;17.25;;;2.80;99.90;;;;;;4956413;29;20070;-87
2024/02/28 00:30:09;;;;;;;49.90;18.58;;;2.00;99.90;;;;;;4941165;29;20496;-86
2024/02/28 00:32:36;;;;;;;40.88;17.48;;;2.00;99.90;;;;;;4940796;29;20044;-87
2024/02/28 00:35:03;;;;;;;43.72;16.88;;;2.00;99.90;;;;;;4945337;29;20524;-87
2024/02/28 00:37:30;;;;;;;46.58;17.08;;;2.00;99.90;;;;;;4933602;29;20457;-87
2024/02/28 00:39:57;;;;;;;48.92;18.45;;;2.00;99.90;;;;;;4955161;29;20036;-87
2024/02/28 00:42:24;;;;;;;41.53;17.23;;;2.00;99.90;;;;;;4933189;29;20516;-87
2024/02/28 00:44:50;;;;;;;44.60;17.00;;;2.00;99.90;;;;;;4937425;29;20063;-87
2024/02/28 00:47:17;;;;;;;41.78;16.92;;;3.00;99.90;;;;;;4941242;29;20042;-87
2024/02/28 00:49:44;;;;;;;46.85;17.45;;;2.10;99.90;;;;;;4946499;29;20123;-87
2024/02/28 00:52:11;;;;;;;46.38;17.05;;;2.60;99.90;;;;;;4926512;29;20074;-87
2024/02/28 00:54:37;;;;;;;39.05;15.90;;;2.10;99.90;;;;;;4940822;29;20834;-87
2024/02/28 00:57:04;;;;;;;42.22;17.15;;;2.10;99.90;;;;;;4940250;29;20067;-87
2024/02/28 00:59:31;;;;;;;38.42;16.60;;;2.60;99.90;;;;;;4931303;29;20044;-87
2024/02/28 01:01:57;;;;;;;42.80;16.88;;;2.10;99.90;;;;;;4940268;29;20039;-87
2024/02/28 01:04:24;;;;;;;43.13;17.58;;;2.10;99.90;;;;;;4940591;29;20075;-87
2024/02/28 01:06:50;;;;;;;44.42;16.75;;;2.20;99.90;;;;;;4940362;29;20071;-87
2024/02/28 01:09:17;;;;;;;45.63;17.17;;;2.20;99.90;;;;;;4940304;29;20054;-87
2024/02/28 01:11:44;;;;;;;45.10;17.25;;;2.20;99.90;;;;;;4940148;29;20126;-87
2024/02/28 01:14:11;;;;;;;43.03;16.25;;;2.20;99.90;;;;;;4938637;29;20040;-87
2024/02/28 01:16:38;;;;;;;41.90;16.73;;;2.90;99.90;;;;;;4936069;29;20723;-87
2024/02/28 01:19:04;;;;;;;46.15;16.67;;;2.20;99.90;;;;;;4931223;29;20044;-87
2024/02/28 01:21:31;;;;;;;47.67;18.25;;;2.20;99.90;;;;;;4928669;29;20051;-87
2024/02/28 01:23:57;;;;;;;42.05;16.63;;;2.20;99.90;;;;;;4930100;29;20465;-87
2024/02/28 01:26:24;;;;;;;44.83;16.65;;;2.20;99.90;;;;;;4939879;29;20043;-87
2024/02/28 01:28:51;;;;;;;50.40;17.10;;;2.40;99.90;;;;;;4939848;29;20051;-88
2024/02/28 01:31:17;;;;;;;48.85;17.55;;;2.70;99.90;;;;;;4940303;29;20028;-87
2024/02/28 01:33:44;;;;;;;50.72;18.33;;;3.40;99.90;;;;;;4931699;29;20052;-87
2024/02/28 01:36:12;;;;;;;54.58;18.17;;;2.20;99.90;;;;;;4955626;29;20126;-87
2024/02/28 01:38:38;;;;;;;53.17;18.85;;;2.20;99.90;;;;;;4938869;29;20052;-87
2024/02/28 01:41:05;;;;;;;52.75;18.35;;;2.30;99.90;;;;;;4939756;29;20036;-87
2024/02/28 01:43:32;;;;;;;49.67;19.15;;;2.30;99.90;;;;;;4949201;29;20035;-87
2024/02/28 01:46:26;;;;;;;49.58;18.75;;;2.30;99.90;;;;;;4955084;29;20071;-87
2024/02/28 01:48:57;;;;;;;52.17;18.88;;;2.30;99.90;;;;;;4939120;29;20035;-87
2024/02/28 01:51:25;;;;;;;64.47;19.52;;;2.30;99.90;;;;;;4949391;29;20071;-87
2024/02/28 01:53:53;;;;;;;56.38;18.67;;;2.60;99.90;;;;;;4954782;29;20047;-87
2024/02/28 01:56:22;;;;;;;53.28;18.90;;;2.40;99.90;;;;;;4939485;29;20519;-87
2024/02/28 01:58:50;;;;;;;54.42;19.48;;;2.30;99.90;;;;;;4939579;29;20047;-87
2024/02/28 02:01:17;;;;;;;55.90;19.60;;;3.10;99.90;;;;;;4935541;29;20039;-87
2024/02/28 02:03:44;;;;;;;51.42;19.17;;;2.70;99.90;;;;;;4940910;29;20054;-87
2024/02/28 02:06:11;;;;;;;62.67;20.35;;;2.40;99.90;;;;;;4939512;29;20051;-87
2024/02/28 02:08:38;;;;;;;54.60;18.35;;;2.40;99.90;;;;;;4938402;29;20060;-87
2024/02/28 02:11:08;;;;;;;57.15;20.33;;;2.40;99.90;;;;;;4939225;29;20039;-87
2024/02/28 02:13:35;;;;;;;56.83;20.27;;;2.40;99.90;;;;;;4935434;29;20040;-87
2024/02/28 02:16:03;;;;;;;58.95;20.17;;;2.40;99.90;;;;;;4948926;29;20039;-87
2024/02/28 02:18:29;;;;;;;57.40;20.05;;;2.40;99.90;;;;;;4938676;29;20050;-87
2024/02/28 02:21:04;;;;;;;60.13;20.77;;;2.40;99.90;;;;;;4938470;29;20552;-87
2024/02/28 02:23:32;;;;;;;54.80;20.48;;;2.40;99.90;;;;;;4929537;29;20509;-87
2024/02/28 02:25:58;;;;;;;61.22;21.23;;;2.50;99.90;;;;;;4935897;29;20098;-87
2024/02/28 02:28:25;;;;;;;62.38;19.67;;;2.50;99.90;;;;;;4935184;29;20453;-87
2024/02/28 02:30:51;;;;;;;52.75;18.98;;;2.50;99.90;;;;;;4938799;29;20130;-87
2024/02/28 02:33:18;;;;;;;54.00;20.02;;;2.50;99.90;;;;;;4938690;29;20516;-87
2024/02/28 02:35:45;;;;;;;58.20;19.63;;;2.50;99.90;;;;;;4938999;29;20102;-87
2024/02/28 02:38:11;;;;;;;52.75;18.92;;;2.50;99.90;;;;;;4938313;29;20113;-87
2024/02/28 02:40:38;;;;;;;48.83;19.00;;;2.50;99.90;;;;;;4938264;29;20063;-87
2024/02/28 02:43:05;;;;;;;53.28;20.55;;;2.50;99.90;;;;;;4938683;29;20039;-87
2024/02/28 02:45:34;;;;;;;47.65;19.30;;;2.50;99.90;;;;;;4938074;29;20051;-87
2024/02/28 02:48:01;;;;;;;53.10;20.27;;;2.50;99.90;;;;;;4937550;29;20051;-87
2024/02/28 02:50:27;;;;;;;49.13;18.40;;;2.50;99.90;;;;;;4932108;29;20035;-87
2024/02/28 02:52:54;;;;;;;48.42;18.77;;;2.50;99.90;;;;;;4929853;29;20048;-88
2024/02/28 02:55:20;;;;;;;47.72;18.27;;;2.50;99.90;;;;;;4936709;29;20519;-87
2024/02/28 02:57:47;;;;;;;43.92;18.20;;;3.20;99.90;;;;;;4930314;29;20036;-87
2024/02/28 03:00:14;;;;;;;43.85;17.58;;;3.90;99.90;;;;;;4932773;29;20409;-87
2024/02/28 03:02:40;;;;;;;48.42;19.50;;;2.60;99.90;;;;;;4934669;29;20106;-87
2024/02/28 03:05:07;;;;;;;48.58;18.27;;;2.60;99.90;;;;;;4938353;29;20042;-87
2024/02/28 03:07:34;;;;;;;50.13;18.02;;;2.60;99.90;;;;;;4938819;29;20071;-87
2024/02/28 03:10:01;;;;;;;50.45;18.85;;;2.60;99.90;;;;;;4938107;29;20042;-87
2024/02/28 03:12:28;;;;;;;49.97;18.15;;;2.70;99.90;;;;;;4938111;29;20067;-87
2024/02/28 03:14:55;;;;;;;46.22;17.45;;;3.40;99.90;;;;;;4937606;29;20094;-87
2024/02/28 03:17:21;;;;;;;48.13;19.13;;;2.70;99.90;;;;;;4940476;29;20042;-87
2024/02/28 03:19:48;;;;;;;51.55;18.25;;;3.20;99.90;;;;;;4939100;29;20035;-88
2024/02/28 03:22:15;;;;;;;52.58;17.85;;;2.60;99.90;;;;;;4937901;29;20031;-87
2024/02/28 03:24:42;;;;;;;46.42;17.80;;;3.60;99.90;;;;;;4937344;29;20493;-87
2024/02/28 03:27:08;;;;;;;52.53;18.67;;;3.80;99.90;;;;;;4937994;29;20043;-87
2024/02/28 03:29:35;;;;;;;49.47;17.25;;;3.30;99.90;;;;;;4930723;29;20525;-87
2024/02/28 03:32:01;;;;;;;50.90;18.15;;;2.60;99.90;;;;;;4931248;29;20043;-87
2024/02/28 03:34:28;;;;;;;51.00;18.48;;;2.60;99.90;;;;;;4937221;29;20048;-87
2024/02/28 03:36:55;;;;;;;51.05;17.98;;;2.70;99.90;;;;;;4937760;29;20098;-87
2024/02/28 03:39:21;;;;;;;50.85;18.30;;;2.60;99.90;;;;;;4937639;29;20039;-87
2024/02/28 03:41:48;;;;;;;53.75;17.92;;;2.70;99.90;;;;;;4937790;29;20050;-87
2024/02/28 03:44:15;;;;;;;51.42;18.80;;;2.70;99.90;;;;;;4934193;29;20052;-87
2024/02/28 03:46:41;;;;;;;45.78;17.92;;;2.60;99.90;;;;;;4937378;29;20571;-87
2024/02/28 03:49:08;;;;;;;50.17;18.00;;;2.60;99.90;;;;;;4937575;29;20079;-87
2024/02/28 03:51:41;;;;;;;51.08;18.80;;;2.60;99.90;;;;;;4937828;29;20508;-87
2024/02/28 03:54:08;;;;;;;50.60;18.08;;;2.60;99.90;;;;;;4949849;29;20405;-87
2024/02/28 03:56:35;;;;;;;47.83;18.45;;;2.90;99.90;;;;;;4930621;29;20118;-87
2024/02/28 03:59:02;;;;;;;48.80;19.02;;;2.60;99.90;;;;;;4947579;29;20531;-87
2024/02/28 04:01:28;;;;;;;49.28;18.60;;;4.00;99.90;;;;;;4928000;29;20061;-87
2024/02/28 04:03:55;;;;;;;51.60;18.65;;;2.60;99.90;;;;;;4942899;29;20509;-87
2024/02/28 04:06:21;;;;;;;44.45;17.15;;;3.60;99.90;;;;;;4951188;29;20071;-87
2024/02/28 04:08:48;;;;;;;47.33;18.60;;;2.60;99.90;;;;;;4924517;29;20042;-87
2024/02/28 04:11:15;;;;;;;43.70;17.23;;;3.50;99.90;;;;;;4937179;29;20048;-87
2024/02/28 04:13:41;;;;;;;40.42;16.67;;;2.60;99.90;;;;;;4952894;29;20581;-87
2024/02/28 04:16:11;;;;;;;44.45;18.05;;;2.60;99.90;;;;;;4952331;29;20497;-87
2024/02/28 04:18:37;;;;;;;48.67;17.98;;;2.60;99.90;;;;;;4937096;29;20039;-87
2024/02/28 04:21:04;;;;;;;45.40;18.27;;;3.10;99.90;;;;;;4936554;29;20040;-87
2024/02/28 04:23:31;;;;;;;41.83;18.17;;;2.60;99.90;;;;;;4952522;29;20040;-87
2024/02/28 04:25:57;;;;;;;44.70;19.02;;;2.60;99.90;;;;;;4952608;29;20105;-86
2024/02/28 04:28:24;;;;;;;37.65;16.52;;;3.60;99.90;;;;;;4935542;29;20123;-87
2024/02/28 04:30:51;;;;;;;41.53;18.42;;;3.90;99.90;;;;;;4937284;29;20071;-87
2024/02/28 04:33:17;;;;;;;43.17;18.33;;;2.50;99.90;;;;;;4936941;29;20039;-87
2024/02/28 04:35:44;;;;;;;46.83;19.05;;;2.60;99.90;;;;;;4936633;29;20044;-87
2024/02/28 04:38:11;;;;;;;45.72;17.92;;;2.60;99.90;;;;;;4936738;29;20047;-87
2024/02/28 04:40:37;;;;;;;44.08;17.95;;;3.50;99.90;;;;;;4936788;29;20047;-87
2024/02/28 04:43:04;;;;;;;48.92;17.50;;;3.20;99.90;;;;;;4937006;29;20118;-87
2024/02/28 04:45:33;;;;;;;46.50;17.67;;;2.60;99.90;;;;;;4937040;29;20043;-87
2024/02/28 04:48:00;;;;;;;46.95;19.30;;;3.10;99.90;;;;;;4929367;29;20127;-87
2024/02/28 04:50:27;;;;;;;41.63;16.42;;;2.60;99.90;;;;;;4937152;29;20039;-87
2024/02/28 04:52:55;;;;;;;49.30;17.00;;;2.60;99.90;;;;;;4939036;29;20050;-87
2024/02/28 04:55:22;;;;;;;37.80;17.08;;;2.60;99.90;;;;;;4940075;29;20643;-87
2024/02/28 04:57:48;;;;;;;43.60;18.67;;;3.80;99.90;;;;;;4940192;29;20122;-87
2024/02/28 05:00:15;;;;;;;45.13;17.95;;;2.60;99.90;;;;;;4942723;29;20045;-88
2024/02/28 05:02:42;;;;;;;43.60;17.63;;;2.60;99.90;;;;;;4939626;29;20040;-87
2024/02/28 05:05:09;;;;;;;45.97;19.33;;;3.20;99.90;;;;;;4939824;29;20461;-87
2024/02/28 05:07:35;;;;;;;45.75;17.45;;;3.70;99.90;;;;;;4937725;29;20048;-87
2024/02/28 05:10:02;;;;;;;42.05;18.35;;;2.60;99.90;;;;;;4932955;29;20051;-87
2024/02/28 05:12:28;;;;;;;43.13;17.33;;;2.60;99.90;;;;;;4957428;29;21039;-87
2024/02/28 05:14:55;;;;;;;42.15;16.50;;;2.60;99.90;;;;;;4939384;29;20039;-87
2024/02/28 05:17:22;;;;;;;44.72;18.48;;;3.70;99.90;;;;;;4939993;29;20126;-87
2024/02/28 05:19:48;;;;;;;40.50;17.10;;;3.60;99.90;;;;;;4957495;29;20560;-87
2024/02/28 05:22:15;;;;;;;44.42;17.15;;;3.80;99.90;;;;;;4933619;29;20078;-87
2024/02/28 05:24:43;;;;;;;45.22;17.70;;;3.70;99.90;;;;;;4936411;29;20579;-87
2024/02/28 05:27:10;;;;;;;47.83;17.73;;;2.60;99.90;;;;;;4952097;29;20050;-87
2024/02/28 05:29:36;;;;;;;43.80;17.45;;;3.10;99.90;;;;;;4939685;29;20040;-87
2024/02/28 05:32:04;;;;;;;41.40;17.55;;;2.70;99.90;;;;;;4938724;29;20095;-87
2024/02/28 05:34:30;;;;;;;41.30;17.38;;;2.70;99.90;;;;;;4928384;29;20056;-87
2024/02/28 05:36:57;;;;;;;39.33;17.58;;;3.20;99.90;;;;;;4955180;29;20056;-87
2024/02/28 05:39:24;;;;;;;41.20;17.23;;;3.80;99.90;;;;;;4935229;29;20036;-87
2024/02/28 05:41:50;;;;;;;39.38;17.08;;;3.80;99.90;;;;;;4935117;29;20474;-87
2024/02/28 05:44:17;;;;;;;42.55;17.10;;;2.70;99.90;;;;;;4939539;29;20050;-87
2024/02/28 05:46:44;;;;;;;42.30;17.35;;;2.70;99.90;;;;;;4951900;29;20079;-87
2024/02/28 05:49:10;;;;;;;42.28;16.75;;;3.10;99.90;;;;;;4929903;29;20040;-87
2024/02/28 05:51:37;;;;;;;36.97;16.08;;;2.70;99.90;;;;;;4936192;29;20512;-87
2024/02/28 05:54:03;;;;;;;41.15;16.52;;;2.70;99.90;;;;;;4939549;29;20113;-87
2024/02/28 05:56:30;;;;;;;44.55;16.55;;;2.70;99.90;;;;;;4933408;29;20048;-87
2024/02/28 05:58:57;;;;;;;45.45;17.15;;;2.70;99.90;;;;;;4940922;29;20118;-87
2024/02/28 06:01:23;;;;;;;41.35;16.98;;;2.80;99.90;;;;;;4940065;29;20075;-87
2024/02/28 06:03:50;;;;;;;38.92;17.67;;;2.90;99.90;;;;;;4947955;29;20111;-87
2024/02/28 06:06:17;;;;;;;39.60;16.00;;;3.80;99.90;;;;;;4954933;29;20040;-87
2024/02/28 06:08:44;;;;;;;37.22;16.17;;;3.60;99.90;;;;;;4938708;29;20044;-87
2024/02/28 06:11:11;;;;;;;38.45;16.17;;;2.70;99.90;;;;;;4938849;29;20039;-87
2024/02/28 06:13:40;;;;;;;38.80;16.70;;;2.70;99.90;;;;;;4939240;29;20495;-87
2024/02/28 06:16:07;;;;;;;40.78;16.30;;;3.90;99.90;;;;;;4947139;29;20039;-87
2024/02/28 06:18:34;;;;;;;37.53;15.68;;;2.80;99.90;;;;;;4938771;29;20044;-87
2024/02/28 06:21:01;;;;;;;43.17;18.15;;;3.80;99.90;;;;;;4938043;29;20048;-87
2024/02/28 06:23:28;;;;;;;39.72;16.45;;;3.90;99.90;;;;;;4938762;29;20048;-87
2024/02/28 06:25:54;;;;;;;40.53;16.27;;;4.00;99.90;;;;;;4938058;29;20537;-87
2024/02/28 06:28:21;;;;;;;34.08;15.98;;;3.50;99.90;;;;;;4938192;29;20564;-87
2024/02/28 06:30:48;;;;;;;35.63;15.65;;;3.50;99.90;;;;;;4938381;29;20115;-87
2024/02/28 06:33:15;;;;;;;36.42;16.13;;;4.30;99.90;;;;;;4930565;29;20450;-87
2024/02/28 06:35:41;;;;;;;35.72;15.88;;;4.00;99.90;;;;;;4934904;29;20072;-88
2024/02/28 06:38:08;;;;;;;34.28;14.95;;;2.80;99.90;;;;;;4923480;29;20050;-87
2024/02/28 06:40:35;;;;;;;34.92;15.70;;;2.80;99.90;;;;;;4938326;29;20469;-87
2024/02/28 06:43:02;;;;;;;34.97;14.88;;;2.90;99.90;;;;;;4938472;29;20085;-87
2024/02/28 06:45:29;;;;;;;35.53;15.60;;;2.90;99.90;;;;;;4937430;29;20437;-87
2024/02/28 06:47:55;;;;;;;34.28;14.75;;;2.90;99.90;;;;;;4938380;29;20059;-88
2024/02/28 06:50:22;;;;;;;38.00;15.77;;;2.90;99.90;;;;;;4938305;29;20039;-87
2024/02/28 06:52:49;;;;;;;34.58;15.13;;;2.90;99.90;;;;;;4938189;29;20504;-87
2024/02/28 06:55:15;;;;;;;38.00;15.70;;;2.90;99.90;;;;;;4937063;29;20565;-87
2024/02/28 06:57:43;;;;;;;36.97;16.63;;;2.90;99.90;;;;;;4936976;29;20036;-88
2024/02/28 07:00:18;;;;;;;35.35;15.73;;;2.90;99.90;;;;;;4937354;29;20050;-87
2024/02/28 07:02:45;;;;;;;34.67;15.40;;;3.00;99.90;;;;;;4938079;29;20040;-87
2024/02/28 07:05:12;;;;;;;38.67;15.70;;;3.00;99.90;;;;;;4937444;29;20063;-87
2024/02/28 07:07:39;;;;;;;38.80;16.30;;;3.60;99.90;;;;;;4931766;29;20114;-87
2024/02/28 07:10:06;;;;;;;36.60;15.90;;;3.80;99.90;;;;;;4934403;29;20067;-88
2024/02/28 07:12:33;;;;;;;38.45;16.63;;;3.10;99.90;;;;;;4923680;29;20044;-87
2024/02/28 07:15:00;;;;;;;42.88;17.73;;;3.10;99.90;;;;;;4938194;29;20040;-87
2024/02/28 07:17:26;;;;;;;43.53;16.77;;;3.30;99.90;;;;;;4938141;29;20484;-88
2024/02/28 07:19:53;;;;;;;40.92;17.90;;;3.10;99.90;;;;;;4937885;29;20044;-88
2024/02/28 07:22:21;;;;;;;43.33;17.88;;;3.40;99.90;;;;;;4938223;29;20044;-89
2024/02/28 07:24:47;;;;;;;41.35;17.08;;;3.20;99.90;;;;;;4921391;29;20382;-88
2024/02/28 07:27:14;;;;;;;41.30;16.42;;;3.40;99.90;;;;;;4937494;29;20043;-87
2024/02/28 07:29:44;;;;;;;39.58;16.80;;;3.30;99.90;;;;;;4937129;29;20040;-86
2024/02/28 07:32:10;;;;;;;41.42;17.75;;;3.90;99.90;;;;;;4936446;29;20098;-87
2024/02/28 07:34:37;;;;;;;48.25;19.60;;;4.00;99.90;;;;;;4952496;29;20048;-87
2024/02/28 07:37:04;;;;;;;45.38;17.90;;;4.40;99.90;;;;;;4932813;29;20040;-87
2024/02/28 07:39:30;;;;;;;42.72;18.00;;;3.30;99.90;;;;;;4945510;29;20044;-87
2024/02/28 07:41:57;;;;;;;42.47;17.45;;;3.30;99.90;;;;;;4934082;29;20560;-88
2024/02/28 07:44:23;;;;;;;41.65;18.27;;;3.40;99.90;;;;;;4941612;29;20106;-88
2024/02/28 07:46:50;;;;;;;48.45;19.38;;;3.40;99.90;;;;;;4942469;29;20059;-88
2024/02/28 07:49:17;;;;;;;44.55;18.52;;;3.60;99.90;;;;;;4936078;29;20071;-88
2024/02/28 07:51:44;;;;;;;46.80;19.02;;;3.40;99.90;;;;;;4932763;29;20513;-88
2024/02/28 07:54:10;;;;;;;44.15;19.63;;;3.40;99.90;;;;;;4937166;29;20039;-87
2024/02/28 07:56:37;;;;;;;42.33;18.10;;;3.60;99.90;;;;;;4937792;29;20067;-89
2024/02/28 07:59:03;;;;;;;50.78;19.40;;;4.40;99.90;;;;;;4936489;29;20075;-86
2024/02/28 08:01:30;;;;;;;52.60;19.45;;;4.10;99.90;;;;;;4936582;29;20409;-86
2024/02/28 08:03:57;;;;;;;55.10;24.35;;;4.00;99.90;;;;;;4935750;29;20036;-86
2024/02/28 08:06:24;;;;;;;60.40;21.42;;;3.50;99.90;;;;;;4936178;29;20048;-86
2024/02/28 08:08:51;;;;;;;52.38;20.90;;;4.00;99.90;;;;;;4952198;29;20134;-86
2024/02/28 08:11:18;;;;;;;50.03;20.05;;;3.70;99.90;;;;;;4939483;29;20079;-85
2024/02/28 08:13:45;;;;;;;54.13;21.55;;;3.90;99.90;;;;;;4936238;29;20032;-86
2024/02/28 08:16:12;;;;;;;52.00;21.45;;;3.90;99.90;;;;;;4936159;29;20036;-86
2024/02/28 08:18:38;;;;;;;45.10;19.15;;;3.70;99.90;;;;;;4937111;29;20040;-85
2024/02/28 08:21:05;;;;;;;48.13;20.10;;;3.70;99.90;;;;;;4935979;29;20036;-86
2024/02/28 08:23:32;;;;;;;49.10;20.00;;;3.70;99.90;;;;;;4944384;29;20556;-86
2024/02/28 08:25:58;;;;;;;47.05;19.30;;;4.60;99.90;;;;;;4924825;29;20051;-86
2024/02/28 08:28:25;;;;;;;50.28;19.65;;;3.70;99.90;;;;;;4941027;29;20051;-86
2024/02/28 08:30:52;;;;;;;49.63;18.83;;;3.70;99.90;;;;;;4932477;29;20056;-86
2024/02/28 08:33:18;;;;;;;53.05;19.83;;;3.80;99.90;;;;;;4939214;29;20036;-85
2024/02/28 08:35:45;;;;;;;48.40;19.55;;;3.80;99.90;;;;;;4939301;29;20051;-85
2024/02/28 08:38:12;;;;;;;52.75;20.02;;;3.90;99.90;;;;;;4939711;29;20131;-85
2024/02/28 08:40:38;;;;;;;52.75;18.63;;;3.80;99.90;;;;;;4932908;29;20044;-84
2024/02/28 08:43:05;;;;;;;49.70;19.40;;;3.80;99.90;;;;;;4934368;29;20044;-84
2024/02/28 08:45:32;;;;;;;45.95;18.65;;;3.90;99.90;;;;;;4939809;29;20473;-85
2024/02/28 08:48:01;;;;;;;51.00;18.77;;;3.90;99.90;;;;;;4939438;29;20047;-84
2024/02/28 08:50:29;;;;;;;46.55;19.05;;;3.90;99.90;;;;;;4927105;29;20044;-85
2024/02/28 08:52:55;;;;;;;44.90;19.77;;;3.90;99.90;;;;;;4939474;29;20039;-85
2024/02/28 08:55:22;;;;;;;49.13;18.85;;;4.60;99.90;;;;;;4939584;29;20516;-85
2024/02/28 08:57:49;;;;;;;49.05;19.00;;;4.90;99.90;;;;;;4946700;29;20040;-85
2024/02/28 09:00:17;;;;;;;51.78;19.58;;;4.20;99.90;;;;;;4935836;29;20118;-85
2024/02/28 09:02:44;;;;;;;45.90;20.30;;;4.00;99.90;;;;;;4939407;29;20039;-85
2024/02/28 09:05:11;;;;;;;55.95;20.67;;;4.10;99.90;;;;;;4938657;29;20040;-85
2024/02/28 09:07:37;;;;;;;60.22;20.88;;;4.90;99.90;;;;;;4931578;29;20092;-85
2024/02/28 09:10:07;;;;;;;50.60;20.98;;;4.20;99.90;;;;;;4938977;29;20106;-84
2024/02/28 09:12:34;;;;;;;46.15;19.60;;;4.20;99.90;;;;;;4938781;29;20043;-84
2024/02/28 09:15:00;;;;;;;43.05;19.95;;;4.30;99.90;;;;;;4943346;29;20131;-84
2024/02/28 09:17:27;;;;;;;49.90;20.80;;;5.20;99.90;;;;;;4939028;29;20040;-85
2024/02/28 09:19:54;;;;;;;53.72;21.15;;;5.70;99.90;;;;;;4926587;29;20072;-85
2024/02/28 09:22:21;;;;;;;49.88;21.08;;;5.40;99.90;;;;;;4934651;29;20107;-85
2024/02/28 09:24:48;;;;;;;49.78;20.98;;;5.70;99.90;;;;;;4932266;29;20070;-85
2024/02/28 09:27:15;;;;;;;46.15;19.70;;;5.70;99.90;;;;;;4924916;29;20128;-85
2024/02/28 09:29:42;;;;;;;48.00;20.48;;;4.80;99.90;;;;;;4931842;29;20123;-86
2024/02/28 09:32:09;;;;;;;48.63;20.05;;;4.70;99.90;;;;;;4949292;29;20043;-86
2024/02/28 09:34:36;;;;;;;49.58;20.05;;;4.70;99.90;;;;;;4938579;29;20421;-85
2024/02/28 09:37:04;;;;;;;51.08;19.55;;;4.70;99.90;;;;;;4938441;29;20134;-86
2024/02/28 09:39:30;;;;;;;57.25;20.42;;;4.90;99.90;;;;;;4938815;29;20417;-85
2024/02/28 09:41:57;;;;;;;45.45;19.95;;;5.20;99.90;;;;;;4939031;29;20044;-86
2024/02/28 09:44:25;;;;;;;48.20;19.75;;;5.30;99.90;;;;;;4939507;29;20044;-87
2024/02/28 09:46:52;;;;;;;50.42;20.95;;;5.00;99.90;;;;;;4958007;29;20043;-85
2024/02/28 09:49:19;;;;;;;49.28;19.58;;;5.20;99.90;;;;;;4938179;29;20047;-86
2024/02/28 09:51:51;;;;;;;49.55;19.45;;;5.70;99.90;;;;;;4938623;29;20145;-86
2024/02/28 09:54:18;;;;;;;45.72;19.90;;;6.00;99.90;;;;;;4938895;29;20040;-86
2024/02/28 09:56:48;;;;;;;44.67;18.10;;;5.30;99.90;;;;;;4940179;29;20066;-86
2024/02/28 09:59:21;;;;;;;44.67;19.60;;;6.10;99.90;;;;;;4938815;29;20043;-87
2024/02/28 10:01:55;;;;;;;43.95;18.60;;;6.60;99.90;;;;;;4938791;29;20409;-87
2024/02/28 10:04:25;;;;;;;43.55;18.92;;;6.80;99.90;;;;;;4931081;29;20043;-86
2024/02/28 10:06:51;;;;;;;47.00;19.65;;;5.50;99.90;;;;;;4938476;29;20110;-86
2024/02/28 10:09:18;;;;;;;45.47;18.70;;;5.60;99.90;;;;;;4938519;29;20118;-86
2024/02/28 10:11:46;;;;;;;43.72;18.80;;;5.70;99.90;;;;;;4930409;29;20119;-86
2024/02/28 10:14:20;;;;;;;44.00;20.00;;;5.80;99.90;;;;;;4939025;29;20032;-86
2024/02/28 10:16:46;;;;;;;44.17;18.85;;;6.70;99.90;;;;;;4949981;29;20038;-86
2024/02/28 10:19:13;;;;;;;43.53;18.33;;;5.90;99.90;;;;;;4938138;29;20047;-86
2024/02/28 10:21:40;;;;;;;43.83;19.52;;;6.30;99.90;;;;;;4937888;29;20071;-86
2024/02/28 10:24:07;;;;;;;43.30;19.65;;;5.90;99.90;;;;;;4938398;29;20040;-86
2024/02/28 10:26:45;;;;;;;41.25;19.25;;;5.90;99.90;;;;;;4921712;29;20032;-85
2024/02/28 10:29:12;;;;;;;38.83;18.17;;;5.90;99.90;;;;;;4930526;29;20129;-85
2024/02/28 10:31:41;;;;;;;40.33;18.20;;;6.80;99.90;;;;;;4937792;29;20076;-85
2024/02/28 10:34:08;;;;;;;41.83;18.80;;;6.40;99.90;;;;;;4937887;29;20386;-85
2024/02/28 10:36:36;;;;;;;42.83;18.35;;;6.00;99.90;;;;;;4939643;29;20462;-85
2024/02/28 10:39:03;;;;;;;36.33;17.52;;;7.30;99.90;;;;;;4937435;29;20072;-86
2024/02/28 10:41:32;;;;;;;36.85;17.00;;;6.10;99.90;;;;;;4953511;29;20039;-86
2024/02/28 10:44:01;;;;;;;39.97;18.25;;;6.20;99.90;;;;;;4938042;29;20071;-86
2024/02/28 10:46:29;;;;;;;40.42;18.77;;;6.20;99.90;;;;;;4937414;29;20405;-86
2024/02/28 10:48:55;;;;;;;39.08;17.67;;;6.40;99.90;;;;;;4937313;29;20043;-86
2024/02/28 10:51:25;;;;;;;40.53;18.25;;;6.50;99.90;;;;;;4934411;29;20040;-86
2024/02/28 10:54:11;;;;;;;39.03;17.67;;;6.80;99.90;;;;;;4923727;29;20047;-85
2024/02/28 10:56:41;;;;;;;42.22;18.90;;;6.60;99.90;;;;;;4937194;29;20485;-86
2024/02/28 10:59:10;;;;;;;41.13;18.52;;;6.70;99.90;;;;;;4936665;29;20044;-86
2024/02/28 11:01:38;;;;;;;37.35;17.98;;;6.90;99.90;;;;;;4937962;29;20043;-86
2024/02/28 11:04:05;;;;;;;35.15;18.25;;;6.60;99.90;;;;;;4937430;29;20036;-86
2024/02/28 11:06:32;;;;;;;38.63;18.15;;;7.50;99.90;;;;;;4937678;29;20102;-85
2024/02/28 11:09:00;;;;;;;36.45;18.63;;;7.30;99.90;;;;;;4934099;29;20051;-86
2024/02/28 11:11:31;;;;;;;36.85;18.52;;;6.50;99.90;;;;;;4926203;29;20163;-85
2024/02/28 11:14:00;;;;;;;38.08;18.13;;;7.40;99.90;;;;;;4934294;29;20137;-85
2024/02/28 11:16:36;;;;;;;37.03;17.58;;;6.70;99.90;;;;;;4931575;29;20036;-86
2024/02/28 11:19:05;;;;;;;39.90;17.85;;;6.80;99.90;;;;;;4930807;29;20436;-86
2024/02/28 11:21:35;;;;;;;40.50;18.92;;;6.90;99.90;;;;;;4936736;29;20040;-86
2024/02/28 11:24:03;;;;;;;42.85;18.42;;;7.60;99.90;;;;;;4938022;29;20042;-86
2024/02/28 11:26:30;;;;;;;38.15;17.02;;;7.00;99.90;;;;;;4936825;29;20071;-86
2024/02/28 11:28:57;;;;;;;33.47;17.40;;;8.10;99.90;;;;;;4953188;29;20051;-85
2024/02/28 11:31:23;;;;;;;33.55;17.77;;;6.50;99.90;;;;;;4937980;29;20036;-86
2024/02/28 11:33:50;;;;;;;38.17;19.10;;;7.00;99.90;;;;;;4934510;29;20048;-87
2024/02/28 11:36:17;;;;;;;42.20;19.05;;;7.00;99.90;;;;;;4936562;29;20035;-87
2024/02/28 11:38:44;;;;;;;41.28;18.83;;;8.00;99.90;;;;;;4939131;29;20453;-86
2024/02/28 11:41:13;;;;;;;42.15;18.75;;;7.00;99.90;;;;;;4945132;29;20058;-86
2024/02/28 11:43:40;;;;;;;36.85;18.95;;;7.10;99.90;;;;;;4934491;29;20047;-87
2024/02/28 11:46:10;;;;;;;39.45;18.90;;;7.10;99.90;;;;;;4937309;29;20044;-86
2024/02/28 11:48:37;;;;;;;39.90;18.73;;;7.70;99.90;;;;;;4936503;29;20090;-87
2024/02/28 11:51:04;;;;;;;40.10;18.73;;;8.30;99.90;;;;;;4957519;29;20035;-87
2024/02/28 11:53:30;;;;;;;35.22;18.10;;;7.20;99.90;;;;;;4937813;29;20127;-87
2024/02/28 11:55:57;;;;;;;38.30;18.67;;;7.20;99.90;;;;;;4937079;29;20079;-87
2024/02/28 11:58:25;;;;;;;37.10;19.30;;;7.20;99.90;;;;;;4937027;29;20059;-87
2024/02/28 12:00:52;;;;;;;37.90;19.20;;;7.20;99.90;;;;;;4936741;29;20053;-86
2024/02/28 12:03:23;;;;;;;37.45;19.38;;;7.20;99.90;;;;;;4940241;29;20474;-86
2024/02/28 12:05:51;;;;;;;38.45;19.80;;;7.30;99.90;;;;;;4940721;29;20134;-86
2024/02/28 12:08:19;;;;;;;38.10;19.13;;;7.30;99.90;;;;;;4940092;29;20044;-86
2024/02/28 12:10:46;;;;;;;40.25;20.33;;;7.30;99.90;;;;;;4940669;29;20086;-87
2024/02/28 12:13:20;;;;;;;37.63;19.95;;;8.30;99.90;;;;;;4938980;29;20490;-86
2024/02/28 12:15:48;;;;;;;38.45;19.10;;;7.40;99.90;;;;;;4956011;29;20513;-86
2024/02/28 12:18:17;;;;;;;38.20;19.45;;;7.40;99.90;;;;;;4940298;29;20044;-87
2024/02/28 12:20:45;;;;;;;38.72;17.80;;;7.40;99.90;;;;;;4939951;29;20063;-87
2024/02/28 12:23:12;;;;;;;40.38;19.98;;;8.20;99.90;;;;;;4936424;29;20127;-87
2024/02/28 12:25:39;;;;;;;39.03;18.92;;;7.40;99.90;;;;;;4934359;29;20138;-87
2024/02/28 12:28:06;;;;;;;36.78;18.00;;;7.50;99.90;;;;;;4940066;29;20052;-87
2024/02/28 12:30:44;;;;;;;38.83;18.70;;;7.70;99.90;;;;;;4943687;29;20435;-87
2024/02/28 12:33:14;;;;;;;35.88;18.45;;;7.70;99.90;;;;;;4940417;28;20059;-87
2024/02/28 12:35:41;;;;;;;37.30;19.17;;;8.20;99.90;;;;;;4939788;29;20048;-88